Wilmington, DE (19801)

2:49 AM EDT on August 24, 2016 (GMT -0400)
DEOS | | Change Station

Elev 9 ft 39.73 °N, 75.52 °W | Updated 24 minutes ago

Clear
Clear
67 °F
Feels Like 67 °F
N
2
Wind Variable Wind from WSW
Gusts 3.0 mph

Today
High -- | Low -- °F
--% Chance of Precip.
Yesterday
High -- | Low -- °F
Precip. -- in
Pressure 30.30 in
Visibility 10.0 miles
Clouds Clear
Dew Point 58 °F
Humidity 72%
Rainfall in
Snow Depth Not available.
6:23 AM 7:44 PM
Waning Gibbous, 60% visible
METAR KILG 240551Z AUTO 26003KT 10SM CLR 19/14 A3030 RMK AO2 SLP259 T01890144 10239 20189 50000
Pressure 30.30 in
Visibility 10.0 miles
Clouds Clear
Dew Point 58 °F
Humidity 72%
Rainfall in
Snow Depth Not available.
6:23 AM 7:44 PM
Waning Gibbous, 60% visible
METAR KILG 240551Z AUTO 26003KT 10SM CLR 19/14 A3030 RMK AO2 SLP259 T01890144 10239 20189 50000

10-Day Weather Forecast

Almanac

Astronomy

Aug. 24, 2016 Rise Set
Actual Time
Civil Twilight
Nautical Twilight
Astronomical Twilight
Moon
Length of Visible Light
Length of Day
Tomorrow will be .
, % of the Moon is Illuminated

Today's Extremes

State Highs State Lows

Community

WunderPhotos

Upload Photos

1,934,555 photos uploaded!

WunderBlog® & News

Nearby

Air Quality

  Air Quality AQ Index Pollutant
Not available.

Snow Depth

Station Depth Elevation

Earthquake Activity

City Distance Mag. Time & Date
Minimum magnitude displayed is 2.5.

Coastal Water Temperatures

Place Temperature

Stations

Nearby Weather Stations

Station Location Temp. Windchill Dew Point Humidity Wind Precip. Elev Updated Type
                   

Watches & Warnings

There are currently no watches in effect.